This is the latest recevied weather packets stored in our database for station/object SP9WPN-12. If no packets are shown the sender has not sent any weather packets the latest 10 day(s).
| Time | Temp. | Humidity | Pressure | Rain* | Wind** | Luminosity | Snow |
|---|---|---|---|---|---|---|---|
| 1777589538 | 7.78° C | 69% | 1029.7 hPa | - | - | - | - |
| 1777588941 | 7.78° C | 68% | 1029.7 hPa | - | - | - | - |
| 1777588344 | 7.78° C | 68% | 1029.6 hPa | - | - | - | - |
| 1777587746 | 7.78° C | 67% | 1029.6 hPa | - | - | - | - |
| 1777587149 | 7.78° C | 66% | 1029.6 hPa | - | - | - | - |
| 1777586551 | 7.78° C | 62% | 1029.7 hPa | - | - | - | - |
| 1777585953 | 7.78° C | 63% | 1029.7 hPa | - | - | - | - |
| 1777585355 | 7.78° C | 64% | 1029.8 hPa | - | - | - | - |
| 1777584757 | 7.22° C | 63% | 1029.8 hPa | - | - | - | - |
| 1777584159 | 7.22° C | 64% | 1029.9 hPa | - | - | - | - |
| 1777583562 | 7.22° C | 65% | 1029.9 hPa | - | - | - | - |
| 1777582964 | 6.67° C | 65% | 1030 hPa | - | - | - | - |
| 1777582367 | 6.67° C | 64% | 1030 hPa | - | - | - | - |
| 1777581769 | 6.11° C | 64% | 1030.1 hPa | - | - | - | - |
| 1777581172 | 6.11° C | 63% | 1030 hPa | - | - | - | - |
| 1777580573 | 6.11° C | 63% | 1029.9 hPa | - | - | - | - |
| 1777579976 | 6.67° C | 63% | 1029.8 hPa | - | - | - | - |
| 1777579379 | 6.67° C | 60% | 1029.8 hPa | - | - | - | - |
| 1777578781 | 7.22° C | 61% | 1029.8 hPa | - | - | - | - |
| 1777578183 | 7.22° C | 56% | 1029.8 hPa | - | - | - | - |
| 1777577586 | 8.33° C | 54% | 1029.6 hPa | - | - | - | - |
| 1777576989 | 8.33° C | 52% | 1029.6 hPa | - | - | - | - |
| 1777576391 | 8.89° C | 50% | 1029.4 hPa | - | - | - | - |
| 1777575794 | 9.44° C | 50% | 1029.4 hPa | - | - | - | - |
| 1777575195 | 9.44° C | 49% | 1029.3 hPa | - | - | - | - |
* Rain since midnight (hover to see other rain measurements)
** Current wind speed in m/s (hover to see current wind gust speed)